Swift Ace — C6XB8 — position and weather

sailwx.info

Track history (hours):
 
Tides and Currents Weather Stations Pressure Air Temp Water Temp Dewpoint Dewpoint Depression Visibility Wind Speed Wind Dir Waves Ship Positions

Swift Ace

Last reported at 2015-May-14 12:11 UTC. Time now 2015-May-26 03:46 UTC.
Position N 32°48' W 079°56'.
Warning: this ship's position is 11 days out of date.

Length 200 m; draft 7.5 m.

Type: Cargo ship. MMSI: 311004900.

Date/timePositionNaut miles runAvg speedWind from/ knotsBaromVisibWave heightAir tempDewpointWater temp
2015-May-14 12:11N 32°48' W 079°56'0 0.0
2015-May-14 11:23N 32°48' W 079°56'0 0.0
2015-May-14 10:26N 32°48' W 079°56'0 0.3
2015-May-14 09:11N 32°47' W 079°55'711.6
2015-May-14 08:32N 32°43' W 079°48'1010.5
2015-May-14 07:34N 32°39' W 079°37'1312.4
2015-May-14 06:32N 32°38' W 079°22'1313.6
2015-May-14 05:33N 32°40' W 079°06'1513.9
2015-May-14 04:30N 32°47' W 078°51'1515.5
2015-May-14 03:33N 32°54' W 078°36'12717.5
2015-May-13 20:16N 34°01' W 076°26'3617.6
2015-May-13 18:13N 34°27' W 075°55'21715.8
2015-May-13 04:28N 38°04' W 076°13'4018.4
2015-May-13 02:16N 38°43' W 076°26'1618.3
2015-May-13 01:23N 38°59' W 076°23'1214.4
2015-May-13 00:33N 39°11' W 076°27'7 6.6
2015-May-12 23:33N 39°14' W 076°34'0 0.0
2015-May-12 22:34N 39°14' W 076°34'0 0.0
2015-May-12 21:33N 39°14' W 076°34'0 0.0
2015-May-12 20:30N 39°14' W 076°34'0 0.0
2015-May-12 19:24N 39°14' W 076°34'0 0.0
2015-May-12 18:33N 39°14' W 076°34'0 0.0
2015-May-12 17:30N 39°14' W 076°34'0 0.0
2015-May-12 16:30N 39°14' W 076°34'0 0.0
2015-May-12 15:33N 39°14' W 076°34'0 0.0
2015-May-12 14:30N 39°14' W 076°34'0 0.0
2015-May-12 13:30N 39°14' W 076°34'0 0.0
2015-May-12 12:30N 39°14' W 076°34'0 0.0
2015-May-12 11:33N 39°14' W 076°34'0 0.0
2015-May-12 10:33N 39°14' W 076°34'0 0.0
2015-May-12 09:33N 39°14' W 076°34'2 2.0
2015-May-12 08:33N 39°13' W 076°32'9 9.3
2015-May-12 07:33N 39°06' W 076°24'1313.0
2015-May-12 06:34N 38°53' W 076°24'1817.7
2015-May-12 05:34N 38°36' W 076°26'2018.9
2015-May-12 04:31N 38°17' W 076°17'1616.3
2015-May-12 03:32N 38°02' W 076°12'2316.4
2015-May-12 02:07N 37°39' W 076°08'51113.6
2015-May-10 12:28N 30°24' W 081°33'0 0.0
2015-May-10 11:31N 30°24' W 081°33'  
Track history (hours):
 
Tides and Currents Weather Stations Pressure Air Temp Water Temp Dewpoint Dewpoint Depression Visibility Wind Speed Wind Dir Waves Ship Positions

Swift Ace

Last reported at 2015-May-14 12:11 UTC. Time now 2015-May-26 03:46 UTC.
Position N 32°48' W 079°56'.
Warning: this ship's position is 11 days out of date.

Length 200 m; draft 7.5 m.

Type: Cargo ship. MMSI: 311004900.

Date/timePositionNaut miles runAvg speedWind from/ knotsBaromVisibWave heightAir tempDewpointWater temp
2015-May-14 12:11N 32°48' W 079°56'0 0.0
2015-May-14 11:23N 32°48' W 079°56'0 0.0
2015-May-14 10:26N 32°48' W 079°56'0 0.3
2015-May-14 09:11N 32°47' W 079°55'711.6
2015-May-14 08:32N 32°43' W 079°48'1010.5
2015-May-14 07:34N 32°39' W 079°37'1312.4
2015-May-14 06:32N 32°38' W 079°22'1313.6
2015-May-14 05:33N 32°40' W 079°06'1513.9
2015-May-14 04:30N 32°47' W 078°51'1515.5
2015-May-14 03:33N 32°54' W 078°36'12717.5
2015-May-13 20:16N 34°01' W 076°26'3617.6
2015-May-13 18:13N 34°27' W 075°55'21715.8
2015-May-13 04:28N 38°04' W 076°13'4018.4
2015-May-13 02:16N 38°43' W 076°26'1618.3
2015-May-13 01:23N 38°59' W 076°23'1214.4
2015-May-13 00:33N 39°11' W 076°27'7 6.6
2015-May-12 23:33N 39°14' W 076°34'0 0.0
2015-May-12 22:34N 39°14' W 076°34'0 0.0
2015-May-12 21:33N 39°14' W 076°34'0 0.0
2015-May-12 20:30N 39°14' W 076°34'0 0.0
2015-May-12 19:24N 39°14' W 076°34'0 0.0
2015-May-12 18:33N 39°14' W 076°34'0 0.0
2015-May-12 17:30N 39°14' W 076°34'0 0.0
2015-May-12 16:30N 39°14' W 076°34'0 0.0
2015-May-12 15:33N 39°14' W 076°34'0 0.0
2015-May-12 14:30N 39°14' W 076°34'0 0.0
2015-May-12 13:30N 39°14' W 076°34'0 0.0
2015-May-12 12:30N 39°14' W 076°34'0 0.0
2015-May-12 11:33N 39°14' W 076°34'0 0.0
2015-May-12 10:33N 39°14' W 076°34'0 0.0
2015-May-12 09:33N 39°14' W 076°34'2 2.0
2015-May-12 08:33N 39°13' W 076°32'9 9.3
2015-May-12 07:33N 39°06' W 076°24'1313.0
2015-May-12 06:34N 38°53' W 076°24'1817.7
2015-May-12 05:34N 38°36' W 076°26'2018.9
2015-May-12 04:31N 38°17' W 076°17'1616.3
2015-May-12 03:32N 38°02' W 076°12'2316.4
2015-May-12 02:07N 37°39' W 076°08'51113.6
2015-May-10 12:28N 30°24' W 081°33'0 0.0
2015-May-10 11:31N 30°24' W 081°33'  

Dump ship's entire track history